CheckWX is a tool to help pilots better visualize weather data.  It is not intended as a substitute for an official pre-flight weather briefing.

21:19:14 UTC

HTTB METAR
Tabora Airport
Tabora, Tanzania
Current

1 hour ago

HTTB 212000Z 00000KT 9999 TS FEW017 FEW018CB SCT070 21/18 Q1015 NOSIG
Observed
Nov-21 @ 20:00 UTC
Visibility
10,000+ meters
Flight Rules
VFR
Conditions
Thunderstorm
Cloud Levels
  • Few at 1,700' AGL
  • Few at 1,800' AGL
  • Scattered at 7,000' AGL
Temperature
21°C / 70°F
Dewpoint
18°C / 64°F
Humidity
83%
Altimeter
29.97" Hg
Pressure
1014.92 hPa
Previous

2 hours ago

HTTB 211900Z 00000KT 9999 TS FEW017 FEW018CB SCT070 22/19 Q1015 RERA
Observed
Nov-21 @ 19:00 UTC
Visibility
10,000+ meters
Flight Rules
VFR
Conditions
Thunderstorm
Cloud Levels
  • Few at 1,700' AGL
  • Few at 1,800' AGL
  • Scattered at 7,000' AGL
Temperature
22°C / 72°F
Dewpoint
19°C / 66°F
Humidity
83%
Altimeter
29.97" Hg
Pressure
1014.92 hPa
Previous

3 hours ago

HTTB 211800Z 09013KT 9999 TS SCT017 FEW018CB BKN070 22/20 Q1015 NOSIG
Observed
Nov-21 @ 18:00 UTC
Wind
  • 090° at 13 KTS
Visibility
10,000+ meters
Flight Rules
VFR
Conditions
Thunderstorm
Cloud Levels
  • Scattered at 1,700' AGL
  • Few at 1,800' AGL
  • Broken at 7,000' AGL
Temperature
22°C / 72°F
Dewpoint
20°C / 68°F
Humidity
88%
Altimeter
29.97" Hg
Pressure
1014.92 hPa